createdAt,value
2022-09-17T00:02:21.220Z,7.30
2022-09-17T00:05:50.678Z,6.70
2022-09-17T00:09:18.404Z,7.30
2022-09-17T00:12:47.559Z,9.30
2022-09-17T00:16:22.518Z,10.40
2022-09-17T00:19:50.163Z,12.10
2022-09-17T00:23:17.809Z,13.60
2022-09-17T00:26:45.937Z,7.10
2022-09-17T00:30:17.320Z,8.00
2022-09-17T00:33:44.089Z,7.90
2022-09-17T00:37:12.408Z,8.20
2022-09-17T00:40:42.674Z,10.00
2022-09-17T00:44:39.687Z,6.30
2022-09-17T00:48:09.604Z,5.80
2022-09-17T00:51:41.782Z,7.70
2022-09-17T00:55:18.193Z,7.30
2022-09-17T00:58:45.204Z,6.00
2022-09-17T01:02:12.817Z,7.10
2022-09-17T01:05:47.497Z,8.70
2022-09-17T01:09:33.109Z,7.80
2022-09-17T01:13:18.375Z,5.50
2022-09-17T01:17:02.319Z,10.30
2022-09-17T01:21:04.460Z,8.60
2022-09-17T01:24:50.273Z,6.00
2022-09-17T01:28:40.822Z,6.40
2022-09-17T01:32:14.551Z,6.50
2022-09-17T01:35:52.708Z,5.10
2022-09-17T01:39:30.926Z,9.50
2022-09-17T01:43:05.938Z,6.90
2022-09-17T01:46:44.238Z,10.90
2022-09-17T01:50:47.171Z,7.70
2022-09-17T01:54:42.676Z,7.40
2022-09-17T01:58:39.984Z,9.30
2022-09-17T02:02:49.624Z,6.00
2022-09-17T02:07:14.450Z,7.90
2022-09-17T02:11:06.245Z,7.80
2022-09-17T02:15:03.518Z,5.90
2022-09-17T02:18:36.038Z,13.20
2022-09-17T02:22:11.041Z,8.20
2022-09-17T02:25:44.982Z,8.30
2022-09-17T02:29:21.162Z,8.30
2022-09-17T02:32:48.173Z,9.40
2022-09-17T02:36:15.756Z,8.20
2022-09-17T02:39:43.994Z,6.20
2022-09-17T02:43:16.301Z,7.20
2022-09-17T02:46:59.009Z,9.40
2022-09-17T02:50:37.507Z,7.80
2022-09-17T02:54:14.235Z,5.00
2022-09-17T02:57:49.443Z,10.60
2022-09-17T03:01:32.698Z,5.70
2022-09-17T03:05:00.618Z,7.40
2022-09-17T03:08:44.438Z,4.40
2022-09-17T03:12:11.890Z,6.10
2022-09-17T03:15:38.857Z,6.40
2022-09-17T03:19:06.305Z,4.50
2022-09-17T03:22:33.334Z,5.90
2022-09-17T03:26:00.162Z,8.60
2022-09-17T03:29:27.040Z,8.90
2022-09-17T03:32:53.915Z,9.10
2022-09-17T03:36:24.919Z,6.60
2022-09-17T03:39:51.817Z,7.00
2022-09-17T03:43:20.571Z,4.70
2022-09-17T03:46:47.992Z,6.90
2022-09-17T03:50:15.131Z,5.30
2022-09-17T03:53:42.594Z,7.00
2022-09-17T03:57:09.891Z,5.60
2022-09-17T04:00:38.296Z,5.80
2022-09-17T04:04:05.810Z,8.70
2022-09-17T04:07:32.829Z,4.70
2022-09-17T04:10:59.365Z,5.80
2022-09-17T04:14:27.343Z,6.90
2022-09-17T04:17:57.917Z,6.40
2022-09-17T04:21:24.943Z,4.70
2022-09-17T04:24:51.675Z,5.60
2022-09-17T04:28:19.052Z,4.90
2022-09-17T04:31:46.326Z,6.50
2022-09-17T04:35:13.494Z,8.10
2022-09-17T04:38:40.660Z,5.50
2022-09-17T04:42:07.675Z,5.50
2022-09-17T04:45:34.869Z,5.80
2022-09-17T04:49:01.760Z,5.30
2022-09-17T04:52:30.993Z,6.40
2022-09-17T04:55:57.820Z,6.90
2022-09-17T04:59:24.898Z,4.60
2022-09-17T05:02:53.775Z,4.90
2022-09-17T05:06:20.571Z,7.40
2022-09-17T05:09:47.815Z,6.20
2022-09-17T05:13:14.280Z,8.40
2022-09-17T05:16:41.096Z,7.40
2022-09-17T05:20:09.865Z,8.90
2022-09-17T05:23:36.953Z,6.00
2022-09-17T05:27:03.710Z,5.40
2022-09-17T05:30:31.637Z,5.00
2022-09-17T05:34:00.936Z,9.60
2022-09-17T05:37:27.724Z,4.50
2022-09-17T05:40:54.358Z,5.30
2022-09-17T05:44:21.445Z,4.00
2022-09-17T05:47:48.542Z,6.50
2022-09-17T05:51:15.913Z,7.50
2022-09-17T05:54:45.729Z,6.20
2022-09-17T05:58:19.621Z,8.80
2022-09-17T06:01:51.199Z,5.60
2022-09-17T06:05:18.659Z,5.60
2022-09-17T06:08:45.933Z,3.00
2022-09-17T06:12:13.129Z,6.30
2022-09-17T06:15:40.087Z,5.50
2022-09-17T06:19:06.916Z,4.50
2022-09-17T06:22:33.737Z,3.40
2022-09-17T06:26:01.477Z,3.20
2022-09-17T06:29:28.086Z,3.20
2022-09-17T06:32:55.318Z,5.80
2022-09-17T06:36:22.694Z,5.40
2022-09-17T06:39:49.197Z,7.60
2022-09-17T06:43:17.707Z,3.40
2022-09-17T06:46:44.492Z,6.20
2022-09-17T06:50:13.682Z,4.70
2022-09-17T06:53:43.275Z,6.10
2022-09-17T06:57:10.757Z,4.80
2022-09-17T07:00:37.844Z,7.10
2022-09-17T07:04:10.206Z,4.80
2022-09-17T07:07:39.962Z,6.20
2022-09-17T07:11:07.103Z,5.50
2022-09-17T07:14:34.162Z,5.80
2022-09-17T07:18:02.854Z,4.90
2022-09-17T07:21:29.928Z,6.40
2022-09-17T07:24:56.863Z,6.30
2022-09-17T07:28:24.263Z,3.90
2022-09-17T07:31:51.507Z,6.10
2022-09-17T07:35:19.040Z,5.30
2022-09-17T07:38:46.198Z,6.20
2022-09-17T07:42:13.416Z,4.50
2022-09-17T07:45:40.217Z,5.10
2022-09-17T07:49:07.621Z,6.00
2022-09-17T07:52:34.172Z,8.10
2022-09-17T07:56:02.805Z,5.30
2022-09-17T07:59:30.373Z,5.80
2022-09-17T08:02:58.327Z,7.20
2022-09-17T08:06:28.478Z,8.50
2022-09-17T08:09:56.505Z,6.50
2022-09-17T08:13:23.311Z,4.90
2022-09-17T08:16:50.658Z,3.50
2022-09-17T08:20:19.367Z,6.10
2022-09-17T08:23:46.926Z,6.90
2022-09-17T08:27:14.086Z,6.80
2022-09-17T08:30:40.934Z,7.20
2022-09-17T08:34:12.749Z,5.30
2022-09-17T08:37:39.633Z,3.80
2022-09-17T08:41:22.521Z,5.80
2022-09-17T08:44:52.078Z,5.70
2022-09-17T08:48:20.483Z,5.60
2022-09-17T08:52:00.046Z,3.70
2022-09-17T08:55:35.384Z,3.60
2022-09-17T08:59:13.329Z,4.20
2022-09-17T09:03:00.950Z,6.20
2022-09-17T09:06:37.905Z,3.80
2022-09-17T09:10:14.283Z,4.40
2022-09-17T09:13:47.895Z,5.50
2022-09-17T09:17:17.349Z,6.10
2022-09-17T09:20:49.747Z,7.50
2022-09-17T09:24:26.358Z,6.50
2022-09-17T09:28:19.271Z,6.60
2022-09-17T09:31:58.221Z,4.80
2022-09-17T09:35:28.779Z,6.40
2022-09-17T09:39:02.025Z,3.40
2022-09-17T09:42:34.073Z,3.50
2022-09-17T09:46:21.574Z,6.70
2022-09-17T09:50:10.425Z,4.20
2022-09-17T09:53:47.701Z,6.50
2022-09-17T09:57:18.053Z,3.90
2022-09-17T10:00:46.082Z,3.80
2022-09-17T10:04:20.554Z,4.90
2022-09-17T10:07:49.096Z,4.00
2022-09-17T10:11:27.008Z,4.50
2022-09-17T10:14:54.825Z,7.10
2022-09-17T10:18:26.149Z,7.80
2022-09-17T10:21:53.859Z,3.30
2022-09-17T10:25:30.153Z,3.90
2022-09-17T10:28:59.801Z,4.70
2022-09-17T10:32:27.259Z,3.00
2022-09-17T10:36:04.702Z,4.50
2022-09-17T10:39:44.556Z,3.30
2022-09-17T10:43:25.263Z,3.00
2022-09-17T10:46:52.543Z,3.30
2022-09-17T10:50:23.070Z,5.70
2022-09-17T10:54:24.990Z,3.30
2022-09-17T10:58:15.101Z,5.80
2022-09-17T11:02:07.362Z,2.40
2022-09-17T11:05:53.859Z,4.40
2022-09-17T11:09:31.608Z,4.90
2022-09-17T11:13:18.700Z,2.30
2022-09-17T11:16:57.721Z,3.20
2022-09-17T11:20:44.584Z,3.80
2022-09-17T11:24:38.730Z,5.40
2022-09-17T11:28:11.542Z,4.70
2022-09-17T11:31:48.715Z,3.10
2022-09-17T11:35:20.987Z,6.40
2022-09-17T11:38:51.726Z,7.20
2022-09-17T11:42:23.627Z,6.00
2022-09-17T11:45:58.225Z,4.10
2022-09-17T11:49:35.615Z,3.20
2022-09-17T11:53:12.311Z,3.50
2022-09-17T11:56:46.056Z,2.20
2022-09-17T12:00:20.724Z,3.00
2022-09-17T12:03:54.470Z,1.60
2022-09-17T12:07:36.607Z,2.30
2022-09-17T12:11:12.764Z,2.70
2022-09-17T12:15:05.493Z,5.50
2022-09-17T12:18:42.214Z,2.30
2022-09-17T12:22:15.439Z,4.10
2022-09-17T12:25:48.273Z,1.30
2022-09-17T12:33:54.759Z,4.80
2022-09-17T12:37:33.424Z,0.90
2022-09-17T12:41:08.568Z,6.10
2022-09-17T12:45:09.181Z,5.00
2022-09-17T12:48:57.712Z,1.90
2022-09-17T12:52:39.489Z,3.20
2022-09-17T12:56:14.965Z,0.80
2022-09-17T12:59:49.899Z,1.60
2022-09-17T13:03:26.680Z,1.60
2022-09-17T13:07:31.149Z,1.30
2022-09-17T13:11:27.805Z,1.90
2022-09-17T13:19:17.290Z,3.50
2022-09-17T13:22:50.978Z,3.80
2022-09-17T13:26:21.928Z,4.10
2022-09-17T13:30:06.785Z,3.50
2022-09-17T13:33:54.571Z,2.70
2022-09-17T13:37:24.723Z,3.10
2022-09-17T13:40:53.297Z,2.80
2022-09-17T13:44:25.402Z,4.50
2022-09-17T13:47:56.379Z,2.30
2022-09-17T13:51:53.532Z,2.90
2022-09-17T13:55:40.178Z,3.80
2022-09-17T13:59:12.627Z,7.10
2022-09-17T14:02:41.088Z,3.00
2022-09-17T14:06:38.394Z,1.40
2022-09-17T14:10:42.527Z,1.50
2022-09-17T14:14:50.299Z,1.20
2022-09-17T14:18:44.013Z,3.00
2022-09-17T14:25:51.107Z,3.50
2022-09-17T14:29:37.025Z,2.70
2022-09-17T14:33:15.125Z,2.10
2022-09-17T14:36:44.525Z,2.40
2022-09-17T14:40:18.464Z,1.40
2022-09-17T14:43:51.592Z,2.20
2022-09-17T14:47:22.193Z,3.10
2022-09-17T14:50:50.354Z,2.80
2022-09-17T14:54:33.653Z,2.50
2022-09-17T14:58:06.267Z,0.90
2022-09-17T15:01:35.365Z,1.70
2022-09-17T15:05:04.582Z,2.50
2022-09-17T15:08:33.247Z,2.70
2022-09-17T15:12:06.361Z,1.00
2022-09-17T15:15:34.745Z,3.10
2022-09-17T15:19:03.847Z,2.70
2022-09-17T15:22:33.837Z,1.10
2022-09-17T15:26:07.507Z,2.20
2022-09-17T15:33:05.388Z,9.30
2022-09-17T15:36:35.055Z,1.90
2022-09-17T15:40:13.509Z,6.80
2022-09-17T15:43:44.317Z,3.70
2022-09-17T15:47:50.995Z,1.50
2022-09-17T15:51:27.824Z,4.50
2022-09-17T15:54:56.200Z,10.80
2022-09-17T15:58:28.799Z,4.20
2022-09-17T16:01:58.353Z,6.00
2022-09-17T16:05:55.685Z,5.30
2022-09-17T16:09:50.306Z,2.80
2022-09-17T16:13:17.080Z,6.20
2022-09-17T16:16:44.685Z,4.80
2022-09-17T16:20:17.918Z,4.00
2022-09-17T16:23:46.504Z,5.30
2022-09-17T16:27:21.143Z,3.10
2022-09-17T16:30:50.495Z,3.20
2022-09-17T16:34:20.028Z,2.80
2022-09-17T16:37:49.354Z,9.10
2022-09-17T16:41:16.304Z,4.30
2022-09-17T16:44:44.055Z,11.60
2022-09-17T16:48:11.236Z,10.10
2022-09-17T16:51:38.715Z,6.40
2022-09-17T16:55:07.063Z,6.90
2022-09-17T16:58:34.778Z,6.50
2022-09-17T17:02:02.919Z,10.80
2022-09-17T17:05:30.698Z,8.10
2022-09-17T17:09:01.033Z,8.30
2022-09-17T17:12:28.320Z,6.40
2022-09-17T17:15:57.854Z,7.10
2022-09-17T17:19:25.571Z,7.70
2022-09-17T17:22:55.303Z,8.10
2022-09-17T17:26:22.418Z,7.60
2022-09-17T17:29:50.345Z,5.40
2022-09-17T17:33:18.159Z,5.00
2022-09-17T17:36:46.410Z,8.70
2022-09-17T17:40:15.123Z,7.00
2022-09-17T17:43:42.554Z,7.90
2022-09-17T17:47:10.059Z,9.80
2022-09-17T17:50:37.356Z,11.60
2022-09-17T17:54:05.239Z,13.40
2022-09-17T17:57:32.562Z,9.80
2022-09-17T18:01:00.006Z,10.10
2022-09-17T18:04:28.147Z,9.70
2022-09-17T18:07:56.937Z,7.00
2022-09-17T18:11:24.805Z,6.10
2022-09-17T18:14:58.228Z,9.90
2022-09-17T18:18:26.376Z,9.80
2022-09-17T18:21:55.762Z,7.90
2022-09-17T18:25:23.130Z,7.20
2022-09-17T18:28:50.282Z,10.40
2022-09-17T18:32:18.817Z,8.50
2022-09-17T18:35:46.035Z,8.10
2022-09-17T18:39:53.256Z,11.50
2022-09-17T18:43:03.634Z,9.20
2022-09-17T18:46:32.147Z,8.80
2022-09-17T18:49:58.771Z,11.80
2022-09-17T18:53:25.880Z,8.90
2022-09-17T18:56:52.758Z,11.60
2022-09-17T19:00:20.795Z,7.40
2022-09-17T19:03:50.842Z,8.10
2022-09-17T19:07:20.806Z,12.30
2022-09-17T19:10:57.029Z,9.30
2022-09-17T19:14:25.900Z,6.20
2022-09-17T19:17:54.906Z,7.40
2022-09-17T19:21:23.596Z,10.50
2022-09-17T19:24:51.650Z,10.40
2022-09-17T19:28:20.772Z,9.10
2022-09-17T19:31:48.146Z,9.00
2022-09-17T19:35:23.422Z,12.80
2022-09-17T19:38:53.029Z,7.60
2022-09-17T19:42:33.250Z,10.70
2022-09-17T19:46:06.975Z,8.40
2022-09-17T19:49:36.622Z,11.20
2022-09-17T19:53:08.110Z,7.90
2022-09-17T19:56:43.590Z,8.50
2022-09-17T20:00:16.528Z,10.50
2022-09-17T20:03:45.269Z,7.90
2022-09-17T20:07:14.189Z,9.60
2022-09-17T20:10:42.588Z,8.50
2022-09-17T20:14:10.358Z,12.60
2022-09-17T20:17:39.519Z,8.00
2022-09-17T20:21:12.984Z,7.20
2022-09-17T20:24:47.653Z,8.50
2022-09-17T20:28:17.494Z,10.00
2022-09-17T20:31:47.480Z,8.20
2022-09-17T20:35:14.382Z,8.20
2022-09-17T20:39:11.546Z,9.20
2022-09-17T20:42:30.519Z,10.80
2022-09-17T20:45:59.439Z,8.00
2022-09-17T20:49:29.855Z,8.50
2022-09-17T20:53:01.113Z,9.70
2022-09-17T20:56:34.679Z,8.20
2022-09-17T21:00:18.353Z,8.50
2022-09-17T21:03:50.964Z,8.40
2022-09-17T21:07:19.778Z,9.20
2022-09-17T21:10:49.441Z,9.50
2022-09-17T21:14:19.679Z,7.90
2022-09-17T21:17:48.583Z,6.80
2022-09-17T21:21:20.038Z,9.00
2022-09-17T21:24:50.384Z,9.00
2022-09-17T21:28:26.495Z,5.50
2022-09-17T21:31:54.593Z,6.90
2022-09-17T21:35:30.364Z,9.30
2022-09-17T21:39:00.878Z,7.70
2022-09-17T21:42:28.172Z,9.10
2022-09-17T21:46:12.573Z,11.50
2022-09-17T21:53:04.658Z,9.20
2022-09-17T21:56:35.564Z,8.70
2022-09-17T22:00:03.768Z,10.20
2022-09-17T22:03:32.168Z,9.40
2022-09-17T22:07:01.155Z,7.50
2022-09-17T22:10:29.538Z,8.30
2022-09-17T22:13:59.100Z,7.60
2022-09-17T22:17:26.322Z,8.50
2022-09-17T22:20:55.897Z,7.60
2022-09-17T22:24:24.023Z,7.70
2022-09-17T22:28:16.776Z,7.10
2022-09-17T22:31:41.967Z,6.40
2022-09-17T22:35:11.443Z,7.10
2022-09-17T22:38:40.297Z,10.20
2022-09-17T22:42:08.578Z,7.70
2022-09-17T22:45:40.977Z,7.70
2022-09-17T22:49:08.981Z,8.60
2022-09-17T22:52:35.943Z,8.30
2022-09-17T22:56:03.688Z,6.50
2022-09-17T22:59:30.510Z,8.00
2022-09-17T23:02:58.725Z,9.20
2022-09-17T23:06:29.524Z,8.20
2022-09-17T23:09:57.046Z,6.70
2022-09-17T23:13:27.629Z,6.90
2022-09-17T23:16:54.725Z,7.70
2022-09-17T23:20:22.156Z,9.60
2022-09-17T23:23:53.766Z,13.80
2022-09-17T23:27:20.887Z,11.50
2022-09-17T23:30:48.364Z,11.40
2022-09-17T23:34:16.095Z,13.10
2022-09-17T23:37:45.050Z,10.80
2022-09-17T23:41:14.982Z,10.90
2022-09-17T23:44:42.068Z,8.40
2022-09-17T23:48:09.054Z,12.40
2022-09-17T23:51:38.138Z,12.70
2022-09-17T23:55:04.931Z,9.80
2022-09-17T23:58:34.613Z,10.90
